sensor_id;sensor_type;location;lat;lon;timestamp;P1;durP1;ratioP1;P2;durP2;ratioP2
36715;SDS011;22699;51.034;3.730;2024-03-07T00:00:20;31.30;;;23.55;;
36715;SDS011;22699;51.034;3.730;2024-03-07T00:02:47;34.10;;;24.75;;
36715;SDS011;22699;51.034;3.730;2024-03-07T00:05:14;34.50;;;23.95;;
36715;SDS011;22699;51.034;3.730;2024-03-07T00:07:49;32.95;;;24.52;;
36715;SDS011;22699;51.034;3.730;2024-03-07T00:10:15;31.35;;;23.90;;
36715;SDS011;22699;51.034;3.730;2024-03-07T00:12:41;32.75;;;23.95;;
36715;SDS011;22699;51.034;3.730;2024-03-07T00:15:08;32.33;;;24.27;;
36715;SDS011;22699;51.034;3.730;2024-03-07T00:17:35;33.00;;;25.48;;
36715;SDS011;22699;51.034;3.730;2024-03-07T00:20:03;31.25;;;24.70;;
36715;SDS011;22699;51.034;3.730;2024-03-07T00:22:30;33.70;;;24.77;;
36715;SDS011;22699;51.034;3.730;2024-03-07T00:24:56;35.97;;;26.45;;
36715;SDS011;22699;51.034;3.730;2024-03-07T00:27:22;35.28;;;27.15;;
36715;SDS011;22699;51.034;3.730;2024-03-07T00:29:48;34.95;;;24.80;;
36715;SDS011;22699;51.034;3.730;2024-03-07T00:32:22;37.63;;;27.15;;
36715;SDS011;22699;51.034;3.730;2024-03-07T00:34:49;35.65;;;25.60;;
36715;SDS011;22699;51.034;3.730;2024-03-07T00:37:15;37.03;;;26.60;;
36715;SDS011;22699;51.034;3.730;2024-03-07T00:39:41;38.35;;;29.13;;
36715;SDS011;22699;51.034;3.730;2024-03-07T00:42:07;39.72;;;27.15;;
36715;SDS011;22699;51.034;3.730;2024-03-07T00:44:33;38.80;;;28.52;;
36715;SDS011;22699;51.034;3.730;2024-03-07T00:47:02;36.17;;;26.40;;
36715;SDS011;22699;51.034;3.730;2024-03-07T00:49:27;39.72;;;27.80;;
36715;SDS011;22699;51.034;3.730;2024-03-07T00:51:54;41.22;;;28.60;;
36715;SDS011;22699;51.034;3.730;2024-03-07T00:54:21;43.33;;;30.52;;
36715;SDS011;22699;51.034;3.730;2024-03-07T00:56:48;39.55;;;27.92;;
36715;SDS011;22699;51.034;3.730;2024-03-07T00:59:16;41.92;;;29.75;;
36715;SDS011;22699;51.034;3.730;2024-03-07T01:01:42;43.20;;;29.83;;
36715;SDS011;22699;51.034;3.730;2024-03-07T01:04:07;41.50;;;30.20;;
36715;SDS011;22699;51.034;3.730;2024-03-07T01:06:33;47.10;;;30.70;;
36715;SDS011;22699;51.034;3.730;2024-03-07T01:09:02;40.67;;;29.90;;
36715;SDS011;22699;51.034;3.730;2024-03-07T01:11:29;49.97;;;34.17;;
36715;SDS011;22699;51.034;3.730;2024-03-07T01:13:55;46.38;;;31.63;;
36715;SDS011;22699;51.034;3.730;2024-03-07T01:16:21;45.45;;;31.23;;
36715;SDS011;22699;51.034;3.730;2024-03-07T01:18:47;45.35;;;31.83;;
36715;SDS011;22699;51.034;3.730;2024-03-07T01:21:14;45.88;;;30.92;;
36715;SDS011;22699;51.034;3.730;2024-03-07T01:23:40;44.40;;;30.35;;
36715;SDS011;22699;51.034;3.730;2024-03-07T01:26:05;48.03;;;32.78;;
36715;SDS011;22699;51.034;3.730;2024-03-07T01:28:31;50.38;;;33.95;;
36715;SDS011;22699;51.034;3.730;2024-03-07T01:30:57;51.38;;;33.95;;
36715;SDS011;22699;51.034;3.730;2024-03-07T01:33:25;50.25;;;33.28;;
36715;SDS011;22699;51.034;3.730;2024-03-07T01:35:52;51.55;;;34.88;;
36715;SDS011;22699;51.034;3.730;2024-03-07T01:38:17;53.50;;;34.65;;
36715;SDS011;22699;51.034;3.730;2024-03-07T01:40:43;49.00;;;33.53;;
36715;SDS011;22699;51.034;3.730;2024-03-07T01:43:09;52.08;;;35.42;;
36715;SDS011;22699;51.034;3.730;2024-03-07T01:45:36;47.50;;;33.50;;
36715;SDS011;22699;51.034;3.730;2024-03-07T01:48:07;50.42;;;34.30;;
36715;SDS011;22699;51.034;3.730;2024-03-07T01:50:35;53.35;;;34.78;;
36715;SDS011;22699;51.034;3.730;2024-03-07T01:53:04;51.35;;;34.72;;
36715;SDS011;22699;51.034;3.730;2024-03-07T01:55:31;55.58;;;35.50;;
36715;SDS011;22699;51.034;3.730;2024-03-07T01:58:00;59.25;;;36.75;;
36715;SDS011;22699;51.034;3.730;2024-03-07T02:00:27;49.72;;;35.33;;
36715;SDS011;22699;51.034;3.730;2024-03-07T02:02:53;58.42;;;37.33;;
36715;SDS011;22699;51.034;3.730;2024-03-07T02:05:19;58.80;;;38.20;;
36715;SDS011;22699;51.034;3.730;2024-03-07T02:07:46;57.05;;;35.75;;
36715;SDS011;22699;51.034;3.730;2024-03-07T02:10:12;60.78;;;37.90;;
36715;SDS011;22699;51.034;3.730;2024-03-07T02:12:38;64.07;;;39.38;;
36715;SDS011;22699;51.034;3.730;2024-03-07T02:15:04;52.90;;;37.28;;
36715;SDS011;22699;51.034;3.730;2024-03-07T02:17:30;61.67;;;40.70;;
36715;SDS011;22699;51.034;3.730;2024-03-07T02:19:55;66.97;;;40.13;;
36715;SDS011;22699;51.034;3.730;2024-03-07T02:22:21;58.85;;;38.15;;
36715;SDS011;22699;51.034;3.730;2024-03-07T02:24:48;61.72;;;39.83;;
36715;SDS011;22699;51.034;3.730;2024-03-07T02:27:13;61.35;;;40.10;;
36715;SDS011;22699;51.034;3.730;2024-03-07T02:29:39;65.78;;;41.55;;
36715;SDS011;22699;51.034;3.730;2024-03-07T02:32:06;60.15;;;40.97;;
36715;SDS011;22699;51.034;3.730;2024-03-07T02:34:31;63.15;;;40.38;;
36715;SDS011;22699;51.034;3.730;2024-03-07T02:36:57;65.20;;;41.03;;
36715;SDS011;22699;51.034;3.730;2024-03-07T02:39:23;65.80;;;40.60;;
36715;SDS011;22699;51.034;3.730;2024-03-07T02:41:50;70.57;;;41.08;;
36715;SDS011;22699;51.034;3.730;2024-03-07T02:44:16;62.25;;;41.25;;
36715;SDS011;22699;51.034;3.730;2024-03-07T02:46:42;66.32;;;41.05;;
36715;SDS011;22699;51.034;3.730;2024-03-07T02:49:07;66.13;;;42.13;;
36715;SDS011;22699;51.034;3.730;2024-03-07T02:51:36;63.22;;;39.22;;
36715;SDS011;22699;51.034;3.730;2024-03-07T02:54:01;68.22;;;41.17;;
36715;SDS011;22699;51.034;3.730;2024-03-07T02:56:30;63.30;;;40.28;;
36715;SDS011;22699;51.034;3.730;2024-03-07T02:58:56;67.82;;;41.20;;
36715;SDS011;22699;51.034;3.730;2024-03-07T03:01:22;68.20;;;41.30;;
36715;SDS011;22699;51.034;3.730;2024-03-07T03:03:47;62.40;;;39.78;;
36715;SDS011;22699;51.034;3.730;2024-03-07T03:06:13;73.20;;;41.97;;
36715;SDS011;22699;51.034;3.730;2024-03-07T03:08:40;70.15;;;41.22;;
36715;SDS011;22699;51.034;3.730;2024-03-07T03:11:05;66.35;;;40.65;;
36715;SDS011;22699;51.034;3.730;2024-03-07T03:13:34;70.80;;;41.88;;
36715;SDS011;22699;51.034;3.730;2024-03-07T03:16:03;64.85;;;40.60;;
36715;SDS011;22699;51.034;3.730;2024-03-07T03:18:31;69.63;;;43.47;;
36715;SDS011;22699;51.034;3.730;2024-03-07T03:20:58;66.93;;;42.60;;
36715;SDS011;22699;51.034;3.730;2024-03-07T03:23:24;63.85;;;39.92;;
36715;SDS011;22699;51.034;3.730;2024-03-07T03:25:50;74.05;;;43.97;;
36715;SDS011;22699;51.034;3.730;2024-03-07T03:28:16;72.25;;;43.58;;
36715;SDS011;22699;51.034;3.730;2024-03-07T03:30:43;70.18;;;41.78;;
36715;SDS011;22699;51.034;3.730;2024-03-07T03:33:09;70.13;;;41.58;;
36715;SDS011;22699;51.034;3.730;2024-03-07T03:35:36;69.30;;;41.88;;
36715;SDS011;22699;51.034;3.730;2024-03-07T03:38:02;69.90;;;43.38;;
36715;SDS011;22699;51.034;3.730;2024-03-07T03:40:28;71.65;;;44.20;;
36715;SDS011;22699;51.034;3.730;2024-03-07T03:42:54;68.72;;;42.88;;
36715;SDS011;22699;51.034;3.730;2024-03-07T03:45:19;75.97;;;44.50;;
36715;SDS011;22699;51.034;3.730;2024-03-07T03:47:45;76.55;;;44.13;;
36715;SDS011;22699;51.034;3.730;2024-03-07T03:50:11;81.28;;;44.55;;
36715;SDS011;22699;51.034;3.730;2024-03-07T03:52:41;80.93;;;45.17;;
36715;SDS011;22699;51.034;3.730;2024-03-07T03:55:07;75.68;;;44.40;;
36715;SDS011;22699;51.034;3.730;2024-03-07T03:57:40;76.50;;;45.25;;
36715;SDS011;22699;51.034;3.730;2024-03-07T04:00:07;72.72;;;44.55;;
36715;SDS011;22699;51.034;3.730;2024-03-07T04:02:42;72.82;;;44.25;;
36715;SDS011;22699;51.034;3.730;2024-03-07T04:05:16;75.20;;;44.72;;
36715;SDS011;22699;51.034;3.730;2024-03-07T04:07:43;73.43;;;44.70;;
36715;SDS011;22699;51.034;3.730;2024-03-07T04:10:10;74.97;;;43.60;;
36715;SDS011;22699;51.034;3.730;2024-03-07T04:12:37;77.50;;;43.38;;
36715;SDS011;22699;51.034;3.730;2024-03-07T04:17:32;76.60;;;44.65;;
36715;SDS011;22699;51.034;3.730;2024-03-07T04:19:59;73.25;;;43.22;;
36715;SDS011;22699;51.034;3.730;2024-03-07T04:22:25;76.22;;;43.50;;
36715;SDS011;22699;51.034;3.730;2024-03-07T04:24:51;75.35;;;43.40;;
36715;SDS011;22699;51.034;3.730;2024-03-07T04:27:19;76.22;;;45.83;;
36715;SDS011;22699;51.034;3.730;2024-03-07T04:29:46;76.50;;;44.50;;
36715;SDS011;22699;51.034;3.730;2024-03-07T04:32:14;79.85;;;46.95;;
36715;SDS011;22699;51.034;3.730;2024-03-07T04:34:41;72.93;;;44.05;;
36715;SDS011;22699;51.034;3.730;2024-03-07T04:37:07;81.93;;;44.65;;
36715;SDS011;22699;51.034;3.730;2024-03-07T04:39:35;83.05;;;47.03;;
36715;SDS011;22699;51.034;3.730;2024-03-07T04:42:04;77.35;;;46.42;;
36715;SDS011;22699;51.034;3.730;2024-03-07T04:46:58;75.78;;;43.13;;
36715;SDS011;22699;51.034;3.730;2024-03-07T04:49:25;99.55;;;52.85;;
36715;SDS011;22699;51.034;3.730;2024-03-07T04:51:56;82.32;;;46.00;;
36715;SDS011;22699;51.034;3.730;2024-03-07T04:54:23;82.88;;;45.63;;
36715;SDS011;22699;51.034;3.730;2024-03-07T04:56:50;83.95;;;45.72;;
36715;SDS011;22699;51.034;3.730;2024-03-07T04:59:17;92.97;;;48.58;;
36715;SDS011;22699;51.034;3.730;2024-03-07T05:01:44;86.40;;;47.80;;
36715;SDS011;22699;51.034;3.730;2024-03-07T05:04:14;84.65;;;46.83;;
36715;SDS011;22699;51.034;3.730;2024-03-07T05:06:40;82.43;;;46.67;;
36715;SDS011;22699;51.034;3.730;2024-03-07T05:09:09;86.75;;;47.28;;
36715;SDS011;22699;51.034;3.730;2024-03-07T05:11:46;82.85;;;46.47;;
36715;SDS011;22699;51.034;3.730;2024-03-07T05:14:12;89.13;;;47.97;;
36715;SDS011;22699;51.034;3.730;2024-03-07T05:16:37;99.10;;;50.65;;
36715;SDS011;22699;51.034;3.730;2024-03-07T05:19:03;101.35;;;47.95;;
36715;SDS011;22699;51.034;3.730;2024-03-07T05:21:30;92.03;;;48.47;;
36715;SDS011;22699;51.034;3.730;2024-03-07T05:23:55;88.15;;;47.35;;
36715;SDS011;22699;51.034;3.730;2024-03-07T05:26:22;86.88;;;47.40;;
36715;SDS011;22699;51.034;3.730;2024-03-07T05:28:48;89.78;;;46.38;;
36715;SDS011;22699;51.034;3.730;2024-03-07T05:31:14;89.50;;;48.72;;
36715;SDS011;22699;51.034;3.730;2024-03-07T05:33:40;87.35;;;46.85;;
36715;SDS011;22699;51.034;3.730;2024-03-07T05:36:06;85.55;;;45.83;;
36715;SDS011;22699;51.034;3.730;2024-03-07T05:38:44;79.35;;;45.60;;
36715;SDS011;22699;51.034;3.730;2024-03-07T05:41:12;87.90;;;46.05;;
36715;SDS011;22699;51.034;3.730;2024-03-07T05:43:39;87.70;;;45.67;;
36715;SDS011;22699;51.034;3.730;2024-03-07T05:46:05;84.00;;;46.35;;
36715;SDS011;22699;51.034;3.730;2024-03-07T05:48:36;82.22;;;46.08;;
36715;SDS011;22699;51.034;3.730;2024-03-07T05:51:01;79.90;;;46.22;;
36715;SDS011;22699;51.034;3.730;2024-03-07T05:53:27;82.30;;;46.03;;
36715;SDS011;22699;51.034;3.730;2024-03-07T05:55:53;86.25;;;45.28;;
36715;SDS011;22699;51.034;3.730;2024-03-07T05:58:20;82.32;;;44.72;;
36715;SDS011;22699;51.034;3.730;2024-03-07T06:00:46;83.15;;;46.78;;
36715;SDS011;22699;51.034;3.730;2024-03-07T06:03:17;84.35;;;45.38;;
36715;SDS011;22699;51.034;3.730;2024-03-07T06:05:49;87.07;;;45.55;;
36715;SDS011;22699;51.034;3.730;2024-03-07T06:08:15;87.55;;;45.75;;
36715;SDS011;22699;51.034;3.730;2024-03-07T06:10:42;87.88;;;45.03;;
36715;SDS011;22699;51.034;3.730;2024-03-07T06:13:12;83.38;;;44.40;;
36715;SDS011;22699;51.034;3.730;2024-03-07T06:15:39;82.20;;;43.58;;
36715;SDS011;22699;51.034;3.730;2024-03-07T06:18:07;83.38;;;46.10;;
36715;SDS011;22699;51.034;3.730;2024-03-07T06:20:33;82.25;;;43.28;;
36715;SDS011;22699;51.034;3.730;2024-03-07T06:23:00;85.13;;;44.15;;
36715;SDS011;22699;51.034;3.730;2024-03-07T06:25:30;81.13;;;44.35;;
36715;SDS011;22699;51.034;3.730;2024-03-07T06:30:42;93.28;;;46.63;;
36715;SDS011;22699;51.034;3.730;2024-03-07T06:33:10;90.13;;;46.15;;
36715;SDS011;22699;51.034;3.730;2024-03-07T06:35:37;84.45;;;45.33;;
36715;SDS011;22699;51.034;3.730;2024-03-07T06:38:07;77.75;;;43.33;;
36715;SDS011;22699;51.034;3.730;2024-03-07T06:40:37;94.57;;;45.70;;
36715;SDS011;22699;51.034;3.730;2024-03-07T06:43:07;107.60;;;47.15;;
36715;SDS011;22699;51.034;3.730;2024-03-07T06:45:35;88.18;;;45.33;;
36715;SDS011;22699;51.034;3.730;2024-03-07T06:48:11;83.55;;;45.78;;
36715;SDS011;22699;51.034;3.730;2024-03-07T06:53:07;78.97;;;44.30;;
36715;SDS011;22699;51.034;3.730;2024-03-07T06:55:35;87.05;;;43.53;;
36715;SDS011;22699;51.034;3.730;2024-03-07T06:58:04;84.35;;;45.72;;
36715;SDS011;22699;51.034;3.730;2024-03-07T07:00:32;87.05;;;45.40;;
36715;SDS011;22699;51.034;3.730;2024-03-07T07:03:06;85.10;;;43.88;;
36715;SDS011;22699;51.034;3.730;2024-03-07T07:05:32;88.75;;;45.97;;
36715;SDS011;22699;51.034;3.730;2024-03-07T07:07:58;81.47;;;45.35;;
36715;SDS011;22699;51.034;3.730;2024-03-07T07:10:25;80.13;;;45.30;;
36715;SDS011;22699;51.034;3.730;2024-03-07T07:12:51;86.45;;;43.72;;
36715;SDS011;22699;51.034;3.730;2024-03-07T07:15:20;82.93;;;45.00;;
36715;SDS011;22699;51.034;3.730;2024-03-07T07:17:47;81.07;;;44.30;;
36715;SDS011;22699;51.034;3.730;2024-03-07T07:20:16;93.25;;;47.50;;
36715;SDS011;22699;51.034;3.730;2024-03-07T07:22:43;99.13;;;46.65;;
36715;SDS011;22699;51.034;3.730;2024-03-07T07:25:11;83.38;;;46.60;;
36715;SDS011;22699;51.034;3.730;2024-03-07T07:27:47;83.85;;;45.47;;
36715;SDS011;22699;51.034;3.730;2024-03-07T07:30:15;82.05;;;48.53;;
36715;SDS011;22699;51.034;3.730;2024-03-07T07:32:42;80.30;;;44.25;;
36715;SDS011;22699;51.034;3.730;2024-03-07T07:35:15;93.35;;;44.17;;
36715;SDS011;22699;51.034;3.730;2024-03-07T07:40:07;83.20;;;46.13;;
36715;SDS011;22699;51.034;3.730;2024-03-07T07:42:37;79.72;;;45.08;;
36715;SDS011;22699;51.034;3.730;2024-03-07T07:45:09;75.53;;;42.10;;
36715;SDS011;22699;51.034;3.730;2024-03-07T07:47:42;80.20;;;45.03;;
36715;SDS011;22699;51.034;3.730;2024-03-07T07:50:14;80.43;;;45.65;;
36715;SDS011;22699;51.034;3.730;2024-03-07T07:52:43;92.43;;;46.47;;
36715;SDS011;22699;51.034;3.730;2024-03-07T07:55:11;81.88;;;45.22;;
36715;SDS011;22699;51.034;3.730;2024-03-07T07:57:43;96.95;;;51.08;;
36715;SDS011;22699;51.034;3.730;2024-03-07T08:00:14;90.30;;;48.47;;
36715;SDS011;22699;51.034;3.730;2024-03-07T08:03:08;93.55;;;47.72;;
36715;SDS011;22699;51.034;3.730;2024-03-07T08:05:39;88.13;;;48.55;;
36715;SDS011;22699;51.034;3.730;2024-03-07T08:08:05;85.63;;;47.20;;
36715;SDS011;22699;51.034;3.730;2024-03-07T08:10:32;86.63;;;44.88;;
36715;SDS011;22699;51.034;3.730;2024-03-07T08:13:01;80.47;;;42.90;;
36715;SDS011;22699;51.034;3.730;2024-03-07T08:15:29;77.30;;;42.50;;
36715;SDS011;22699;51.034;3.730;2024-03-07T08:17:55;83.68;;;46.08;;
36715;SDS011;22699;51.034;3.730;2024-03-07T08:20:24;78.60;;;42.42;;
36715;SDS011;22699;51.034;3.730;2024-03-07T08:22:51;83.32;;;46.22;;
36715;SDS011;22699;51.034;3.730;2024-03-07T08:25:19;82.63;;;45.22;;
36715;SDS011;22699;51.034;3.730;2024-03-07T08:27:49;80.15;;;44.33;;
36715;SDS011;22699;51.034;3.730;2024-03-07T08:30:16;80.57;;;45.25;;
36715;SDS011;22699;51.034;3.730;2024-03-07T08:32:43;83.88;;;44.20;;
36715;SDS011;22699;51.034;3.730;2024-03-07T08:35:11;82.85;;;45.05;;
36715;SDS011;22699;51.034;3.730;2024-03-07T08:40:04;73.50;;;41.95;;
36715;SDS011;22699;51.034;3.730;2024-03-07T08:42:40;79.35;;;44.00;;
36715;SDS011;22699;51.034;3.730;2024-03-07T08:45:10;78.90;;;44.03;;
36715;SDS011;22699;51.034;3.730;2024-03-07T08:47:41;83.72;;;43.97;;
36715;SDS011;22699;51.034;3.730;2024-03-07T08:50:07;90.20;;;46.10;;
36715;SDS011;22699;51.034;3.730;2024-03-07T08:52:35;84.70;;;43.75;;
36715;SDS011;22699;51.034;3.730;2024-03-07T08:55:05;77.07;;;43.47;;
36715;SDS011;22699;51.034;3.730;2024-03-07T08:57:34;79.83;;;43.67;;
36715;SDS011;22699;51.034;3.730;2024-03-07T09:00:04;81.43;;;43.40;;
36715;SDS011;22699;51.034;3.730;2024-03-07T09:05:03;73.55;;;39.08;;
36715;SDS011;22699;51.034;3.730;2024-03-07T09:07:30;72.30;;;40.47;;
36715;SDS011;22699;51.034;3.730;2024-03-07T09:09:56;66.95;;;40.58;;
36715;SDS011;22699;51.034;3.730;2024-03-07T09:12:22;71.65;;;39.20;;
36715;SDS011;22699;51.034;3.730;2024-03-07T09:14:50;63.22;;;36.90;;
36715;SDS011;22699;51.034;3.730;2024-03-07T09:17:17;63.70;;;38.55;;
36715;SDS011;22699;51.034;3.730;2024-03-07T09:19:43;55.10;;;34.50;;
36715;SDS011;22699;51.034;3.730;2024-03-07T09:22:08;57.15;;;35.20;;
36715;SDS011;22699;51.034;3.730;2024-03-07T09:24:34;54.28;;;34.85;;
36715;SDS011;22699;51.034;3.730;2024-03-07T09:27:00;53.10;;;34.38;;
36715;SDS011;22699;51.034;3.730;2024-03-07T09:29:26;52.47;;;33.22;;
36715;SDS011;22699;51.034;3.730;2024-03-07T09:31:53;56.60;;;35.90;;
36715;SDS011;22699;51.034;3.730;2024-03-07T09:34:20;55.67;;;35.22;;
36715;SDS011;22699;51.034;3.730;2024-03-07T09:36:47;52.72;;;35.80;;
36715;SDS011;22699;51.034;3.730;2024-03-07T09:39:14;60.85;;;38.58;;
36715;SDS011;22699;51.034;3.730;2024-03-07T09:41:40;54.10;;;36.45;;
36715;SDS011;22699;51.034;3.730;2024-03-07T09:44:12;56.58;;;37.42;;
36715;SDS011;22699;51.034;3.730;2024-03-07T09:46:42;56.65;;;36.53;;
36715;SDS011;22699;51.034;3.730;2024-03-07T09:49:11;56.15;;;36.97;;
36715;SDS011;22699;51.034;3.730;2024-03-07T09:51:38;58.00;;;38.92;;
36715;SDS011;22699;51.034;3.730;2024-03-07T09:54:04;64.25;;;41.25;;
36715;SDS011;22699;51.034;3.730;2024-03-07T09:56:31;63.97;;;38.65;;
36715;SDS011;22699;51.034;3.730;2024-03-07T09:58:57;60.13;;;39.42;;
36715;SDS011;22699;51.034;3.730;2024-03-07T10:01:27;56.47;;;36.53;;
36715;SDS011;22699;51.034;3.730;2024-03-07T10:04:00;62.67;;;39.05;;
36715;SDS011;22699;51.034;3.730;2024-03-07T10:06:36;61.95;;;38.05;;
36715;SDS011;22699;51.034;3.730;2024-03-07T10:09:03;58.95;;;36.85;;
36715;SDS011;22699;51.034;3.730;2024-03-07T10:11:30;60.95;;;37.58;;
36715;SDS011;22699;51.034;3.730;2024-03-07T10:13:55;56.28;;;37.38;;
36715;SDS011;22699;51.034;3.730;2024-03-07T10:16:21;54.53;;;33.72;;
36715;SDS011;22699;51.034;3.730;2024-03-07T10:18:47;55.53;;;33.53;;
36715;SDS011;22699;51.034;3.730;2024-03-07T10:21:24;51.90;;;32.72;;
36715;SDS011;22699;51.034;3.730;2024-03-07T10:23:50;53.92;;;33.92;;
36715;SDS011;22699;51.034;3.730;2024-03-07T10:26:28;51.08;;;34.40;;
36715;SDS011;22699;51.034;3.730;2024-03-07T10:28:54;48.28;;;33.05;;
36715;SDS011;22699;51.034;3.730;2024-03-07T10:31:32;50.28;;;32.45;;
36715;SDS011;22699;51.034;3.730;2024-03-07T10:33:59;47.92;;;30.75;;
36715;SDS011;22699;51.034;3.730;2024-03-07T10:36:25;48.50;;;32.20;;
36715;SDS011;22699;51.034;3.730;2024-03-07T10:38:51;48.35;;;32.40;;
36715;SDS011;22699;51.034;3.730;2024-03-07T10:41:16;52.25;;;34.22;;
36715;SDS011;22699;51.034;3.730;2024-03-07T10:43:43;48.22;;;32.67;;
36715;SDS011;22699;51.034;3.730;2024-03-07T10:46:16;46.63;;;31.52;;
36715;SDS011;22699;51.034;3.730;2024-03-07T10:48:45;47.20;;;31.40;;
36715;SDS011;22699;51.034;3.730;2024-03-07T10:59:16;51.38;;;32.00;;
36715;SDS011;22699;51.034;3.730;2024-03-07T11:01:53;51.53;;;30.80;;
36715;SDS011;22699;51.034;3.730;2024-03-07T11:04:41;49.33;;;30.10;;
36715;SDS011;22699;51.034;3.730;2024-03-07T11:07:08;49.10;;;31.40;;
36715;SDS011;22699;51.034;3.730;2024-03-07T11:09:35;44.67;;;29.60;;
36715;SDS011;22699;51.034;3.730;2024-03-07T11:12:02;45.28;;;28.92;;
36715;SDS011;22699;51.034;3.730;2024-03-07T11:14:30;48.78;;;31.02;;
36715;SDS011;22699;51.034;3.730;2024-03-07T11:16:57;53.45;;;30.90;;
36715;SDS011;22699;51.034;3.730;2024-03-07T11:19:27;48.53;;;31.13;;
36715;SDS011;22699;51.034;3.730;2024-03-07T11:21:56;45.13;;;30.45;;
36715;SDS011;22699;51.034;3.730;2024-03-07T11:24:26;43.25;;;29.13;;
36715;SDS011;22699;51.034;3.730;2024-03-07T11:26:54;47.95;;;29.10;;
36715;SDS011;22699;51.034;3.730;2024-03-07T11:32:13;43.17;;;29.45;;
36715;SDS011;22699;51.034;3.730;2024-03-07T11:34:40;43.85;;;28.77;;
36715;SDS011;22699;51.034;3.730;2024-03-07T11:37:08;48.15;;;29.95;;
36715;SDS011;22699;51.034;3.730;2024-03-07T11:39:46;38.20;;;26.98;;
36715;SDS011;22699;51.034;3.730;2024-03-07T11:42:31;42.47;;;25.98;;
36715;SDS011;22699;51.034;3.730;2024-03-07T11:44:59;38.55;;;26.52;;
36715;SDS011;22699;51.034;3.730;2024-03-07T11:47:38;36.83;;;25.40;;
36715;SDS011;22699;51.034;3.730;2024-03-07T11:50:05;42.15;;;26.58;;
36715;SDS011;22699;51.034;3.730;2024-03-07T11:52:36;41.45;;;27.60;;
36715;SDS011;22699;51.034;3.730;2024-03-07T11:55:07;39.40;;;26.27;;
36715;SDS011;22699;51.034;3.730;2024-03-07T11:57:33;42.88;;;27.88;;
36715;SDS011;22699;51.034;3.730;2024-03-07T11:59:59;46.45;;;28.65;;
36715;SDS011;22699;51.034;3.730;2024-03-07T12:02:27;38.10;;;27.15;;
36715;SDS011;22699;51.034;3.730;2024-03-07T12:04:54;39.30;;;23.95;;
36715;SDS011;22699;51.034;3.730;2024-03-07T12:07:21;33.53;;;23.70;;
36715;SDS011;22699;51.034;3.730;2024-03-07T12:09:48;35.67;;;24.50;;
36715;SDS011;22699;51.034;3.730;2024-03-07T12:12:19;30.88;;;24.45;;
36715;SDS011;22699;51.034;3.730;2024-03-07T12:14:56;35.38;;;25.45;;
36715;SDS011;22699;51.034;3.730;2024-03-07T12:17:24;39.60;;;26.15;;
36715;SDS011;22699;51.034;3.730;2024-03-07T12:19:56;33.22;;;22.83;;
36715;SDS011;22699;51.034;3.730;2024-03-07T12:22:26;34.00;;;23.55;;
36715;SDS011;22699;51.034;3.730;2024-03-07T12:25:00;37.05;;;23.95;;
36715;SDS011;22699;51.034;3.730;2024-03-07T12:27:34;34.50;;;22.35;;
36715;SDS011;22699;51.034;3.730;2024-03-07T12:30:03;35.95;;;23.95;;
36715;SDS011;22699;51.034;3.730;2024-03-07T12:32:33;36.85;;;23.67;;
36715;SDS011;22699;51.034;3.730;2024-03-07T12:35:04;31.92;;;24.08;;
36715;SDS011;22699;51.034;3.730;2024-03-07T12:37:58;35.53;;;24.15;;
36715;SDS011;22699;51.034;3.730;2024-03-07T12:40:28;33.97;;;24.23;;
36715;SDS011;22699;51.034;3.730;2024-03-07T12:43:13;35.55;;;22.92;;
36715;SDS011;22699;51.034;3.730;2024-03-07T12:45:49;34.75;;;23.52;;
36715;SDS011;22699;51.034;3.730;2024-03-07T12:48:16;35.00;;;23.23;;
36715;SDS011;22699;51.034;3.730;2024-03-07T12:50:45;33.90;;;23.60;;
36715;SDS011;22699;51.034;3.730;2024-03-07T12:53:10;35.13;;;25.55;;
36715;SDS011;22699;51.034;3.730;2024-03-07T12:55:40;31.67;;;23.77;;
36715;SDS011;22699;51.034;3.730;2024-03-07T12:58:07;33.85;;;24.77;;
36715;SDS011;22699;51.034;3.730;2024-03-07T13:00:34;34.35;;;24.83;;
36715;SDS011;22699;51.034;3.730;2024-03-07T13:03:00;33.33;;;24.63;;
36715;SDS011;22699;51.034;3.730;2024-03-07T13:05:26;34.80;;;25.83;;
36715;SDS011;22699;51.034;3.730;2024-03-07T13:07:52;38.85;;;26.95;;
36715;SDS011;22699;51.034;3.730;2024-03-07T13:10:18;35.95;;;26.10;;
36715;SDS011;22699;51.034;3.730;2024-03-07T13:12:45;34.05;;;24.48;;
36715;SDS011;22699;51.034;3.730;2024-03-07T13:15:13;36.50;;;24.13;;
36715;SDS011;22699;51.034;3.730;2024-03-07T13:17:41;30.75;;;23.63;;
36715;SDS011;22699;51.034;3.730;2024-03-07T13:20:11;32.35;;;24.23;;
36715;SDS011;22699;51.034;3.730;2024-03-07T13:25:30;32.38;;;23.83;;
36715;SDS011;22699;51.034;3.730;2024-03-07T13:30:38;31.70;;;24.60;;
36715;SDS011;22699;51.034;3.730;2024-03-07T13:33:05;35.22;;;24.35;;
36715;SDS011;22699;51.034;3.730;2024-03-07T13:35:31;35.58;;;24.45;;
36715;SDS011;22699;51.034;3.730;2024-03-07T13:37:56;33.17;;;26.08;;
36715;SDS011;22699;51.034;3.730;2024-03-07T13:40:23;33.83;;;24.83;;
36715;SDS011;22699;51.034;3.730;2024-03-07T13:42:56;35.05;;;25.73;;
36715;SDS011;22699;51.034;3.730;2024-03-07T13:45:25;33.17;;;25.80;;
36715;SDS011;22699;51.034;3.730;2024-03-07T13:48:03;35.40;;;25.93;;
36715;SDS011;22699;51.034;3.730;2024-03-07T13:50:31;34.85;;;26.23;;
36715;SDS011;22699;51.034;3.730;2024-03-07T13:52:58;34.55;;;27.13;;
36715;SDS011;22699;51.034;3.730;2024-03-07T14:10:21;35.00;;;26.17;;
36715;SDS011;22699;51.034;3.730;2024-03-07T14:21:31;33.03;;;26.15;;
36715;SDS011;22699;51.034;3.730;2024-03-07T14:33:08;35.88;;;26.40;;
36715;SDS011;22699;51.034;3.730;2024-03-07T14:35:35;42.90;;;27.08;;
36715;SDS011;22699;51.034;3.730;2024-03-07T14:38:24;32.70;;;25.25;;
36715;SDS011;22699;51.034;3.730;2024-03-07T14:40:52;33.17;;;25.77;;
36715;SDS011;22699;51.034;3.730;2024-03-07T14:43:19;33.25;;;26.73;;
36715;SDS011;22699;51.034;3.730;2024-03-07T14:45:45;33.10;;;25.45;;
36715;SDS011;22699;51.034;3.730;2024-03-07T14:48:12;33.42;;;25.15;;
36715;SDS011;22699;51.034;3.730;2024-03-07T14:50:43;32.30;;;25.98;;
36715;SDS011;22699;51.034;3.730;2024-03-07T14:53:11;32.92;;;24.25;;
36715;SDS011;22699;51.034;3.730;2024-03-07T14:55:38;33.33;;;24.55;;
36715;SDS011;22699;51.034;3.730;2024-03-07T14:58:05;31.48;;;24.15;;
36715;SDS011;22699;51.034;3.730;2024-03-07T15:00:38;33.30;;;24.63;;
36715;SDS011;22699;51.034;3.730;2024-03-07T15:03:10;29.73;;;23.02;;
36715;SDS011;22699;51.034;3.730;2024-03-07T15:05:39;29.73;;;23.13;;
36715;SDS011;22699;51.034;3.730;2024-03-07T15:08:06;26.60;;;22.45;;
36715;SDS011;22699;51.034;3.730;2024-03-07T15:10:32;31.20;;;23.48;;
36715;SDS011;22699;51.034;3.730;2024-03-07T15:13:00;33.55;;;25.20;;
36715;SDS011;22699;51.034;3.730;2024-03-07T15:15:27;31.98;;;24.25;;
36715;SDS011;22699;51.034;3.730;2024-03-07T15:17:56;31.33;;;22.63;;
36715;SDS011;22699;51.034;3.730;2024-03-07T15:20:22;29.45;;;23.85;;
36715;SDS011;22699;51.034;3.730;2024-03-07T15:25:18;29.63;;;24.00;;
36715;SDS011;22699;51.034;3.730;2024-03-07T15:27:45;31.05;;;23.23;;
36715;SDS011;22699;51.034;3.730;2024-03-07T15:30:14;28.73;;;23.50;;
36715;SDS011;22699;51.034;3.730;2024-03-07T15:32:41;33.53;;;24.80;;
36715;SDS011;22699;51.034;3.730;2024-03-07T15:35:09;30.38;;;22.48;;